Time;durP1;ratioP1;P1;durP2;ratioP2;P2;SDS_P1;SDS_P2;PMS_P1;PMS_P2;Temp;Humidity;BMP_temperature;BMP_pressure;BME280_temperature;BME280_humidity;BME280_pressure;Samples;Min_cycle;Max_cycle;Signal;HPM_P1;HPM_P2
2023/07/30 00:00:40;;;;;;;2.80;1.20;;;;;;;17.28;96.14;100090.88;106638;1250;61355;-68
2023/07/30 00:03:07;;;;;;;2.60;1.10;;;;;;;17.32;95.65;100089.41;106255;1250;72451;-68
2023/07/30 00:05:34;;;;;;;3.00;1.20;;;;;;;17.35;95.32;100090.92;106393;1250;69885;-68
2023/07/30 00:08:01;;;;;;;2.90;1.10;;;;;;;17.37;94.92;100091.39;106291;1250;71469;-69
2023/07/30 00:10:28;;;;;;;2.00;1.10;;;;;;;17.37;94.67;100089.98;106556;1250;61440;-69
2023/07/30 00:12:54;;;;;;;2.10;1.10;;;;;;;17.37;94.57;100093.59;106447;1250;61343;-68
2023/07/30 00:15:21;;;;;;;2.20;1.10;;;;;;;17.36;94.52;100098.77;106376;1255;74665;-68
2023/07/30 00:17:48;;;;;;;2.20;1.10;;;;;;;17.35;94.38;100094.63;106276;1254;69711;-68
2023/07/30 00:20:15;;;;;;;2.30;1.10;;;;;;;17.34;94.34;100093.38;106424;1250;72511;-68
2023/07/30 00:22:42;;;;;;;3.30;1.10;;;;;;;17.31;94.41;100094.00;106553;1250;61244;-68
2023/07/30 00:25:09;;;;;;;2.30;1.00;;;;;;;17.28;94.44;100093.77;106473;1250;61737;-68
2023/07/30 00:27:36;;;;;;;2.40;1.30;;;;;;;17.24;94.58;100091.42;106405;1250;72729;-69
2023/07/30 00:30:02;;;;;;;2.70;1.20;;;;;;;17.20;94.71;100092.77;106309;1250;68792;-69
2023/07/30 00:32:29;;;;;;;2.30;1.20;;;;;;;17.15;94.94;100090.46;106549;1250;72587;-71
2023/07/30 00:34:56;;;;;;;3.40;1.40;;;;;;;17.10;94.95;100090.20;106373;1250;61387;-69
2023/07/30 00:37:23;;;;;;;2.20;1.20;;;;;;;17.06;95.06;100089.08;106411;1250;61244;-69
2023/07/30 00:39:50;;;;;;;2.20;1.30;;;;;;;17.02;95.23;100088.73;106274;1255;74814;-69
2023/07/30 00:42:17;;;;;;;3.40;1.60;;;;;;;16.99;95.32;100089.45;106328;1254;71583;-69
2023/07/30 00:44:44;;;;;;;2.90;1.40;;;;;;;16.97;95.64;100090.79;106604;1250;71297;-69
2023/07/30 00:47:11;;;;;;;2.20;1.40;;;;;;;16.94;96.08;100095.39;106356;1250;61331;-69
2023/07/30 00:49:38;;;;;;;2.20;1.20;;;;;;;16.91;96.15;100098.60;106354;1257;61267;-68
2023/07/30 00:52:06;;;;;;;2.30;1.40;;;;;;;16.89;96.55;100100.54;106287;1250;74821;-69
2023/07/30 00:54:33;;;;;;;2.50;1.30;;;;;;;16.87;96.72;100101.35;106525;1250;71338;-70
2023/07/30 00:57:01;;;;;;;2.70;1.30;;;;;;;16.86;97.17;100105.11;106407;1251;72485;-68
2023/07/30 00:59:28;;;;;;;2.30;1.40;;;;;;;16.84;97.46;100105.02;106301;1250;61248;-67
2023/07/30 01:01:57;;;;;;;3.90;1.90;;;;;;;16.83;97.83;100105.37;106297;1250;61267;-68
2023/07/30 01:04:24;;;;;;;4.00;1.70;;;;;;;16.83;98.82;100109.12;106471;1254;73777;-69
2023/07/30 01:06:50;;;;;;;3.70;1.80;;;;;;;16.83;98.62;100110.55;106576;1250;71441;-69
2023/07/30 01:09:17;;;;;;;2.50;1.40;;;;;;;16.83;99.29;100112.86;106364;1250;72782;-68
2023/07/30 01:11:45;;;;;;;4.10;1.90;;;;;;;16.83;99.72;100108.84;106274;1250;61366;-69
2023/07/30 01:14:14;;;;;;;2.70;1.80;;;;;;;16.86;100.00;100111.95;106299;1250;61264;-68
2023/07/30 01:16:41;;;;;;;2.90;1.90;;;;;;;16.91;100.00;100117.95;106658;1250;73147;-68
2023/07/30 01:19:08;;;;;;;3.30;1.80;;;;;;;16.97;100.00;100117.11;106333;1253;69679;-68
2023/07/30 01:21:35;;;;;;;2.70;1.70;;;;;;;17.00;100.00;100123.40;106364;1254;70833;-68
2023/07/30 01:24:04;;;;;;;5.90;1.80;;;;;;;17.02;100.00;100127.08;106337;1250;61213;-68
2023/07/30 01:26:42;;;;;;;5.30;2.00;;;;;;;17.02;100.00;100128.02;106408;1250;61249;-69
2023/07/30 01:29:15;;;;;;;3.60;1.90;;;;;;;17.04;100.00;100127.95;106427;1250;72907;-69
2023/07/30 01:31:43;;;;;;;3.30;2.10;;;;;;;17.04;100.00;100137.20;106344;1253;69341;-70
2023/07/30 01:34:11;;;;;;;3.60;1.80;;;;;;;17.05;100.00;100141.11;106428;1254;72622;-69
2023/07/30 01:36:40;;;;;;;2.90;1.70;;;;;;;17.06;100.00;100139.45;106468;1250;61833;-70
2023/07/30 01:39:09;;;;;;;3.50;2.00;;;;;;;17.06;100.00;100143.48;106487;1256;61512;-68
2023/07/30 01:41:36;;;;;;;4.00;1.90;;;;;;;17.07;100.00;100142.30;106337;1254;73965;-69
2023/07/30 01:44:04;;;;;;;3.50;1.90;;;;;;;17.06;100.00;100142.05;106462;1255;69997;-69
2023/07/30 01:46:31;;;;;;;3.20;2.10;;;;;;;17.05;100.00;100136.23;106724;1256;72748;-68
2023/07/30 01:48:58;;;;;;;3.70;2.20;;;;;;;17.02;100.00;100139.58;106416;1250;61218;-71
2023/07/30 01:51:24;;;;;;;4.30;2.20;;;;;;;16.98;100.00;100138.03;106355;1250;61273;-70
2023/07/30 01:53:51;;;;;;;4.80;2.30;;;;;;;16.93;100.00;100137.23;106452;1250;73525;-68
2023/07/30 01:56:18;;;;;;;5.70;2.40;;;;;;;16.89;100.00;100142.37;106524;1250;69914;-69
2023/07/30 01:58:45;;;;;;;3.70;2.40;;;;;;;16.84;100.00;100145.90;106373;1250;72611;-70
2023/07/30 02:01:12;;;;;;;4.10;2.60;;;;;;;16.80;100.00;100155.43;106296;1251;62443;-69
2023/07/30 02:03:38;;;;;;;4.30;2.40;;;;;;;16.77;100.00;100154.27;106534;1250;62397;-71
2023/07/30 02:06:05;;;;;;;4.40;2.70;;;;;;;16.74;100.00;100153.33;106370;1255;74897;-68
2023/07/30 02:08:32;;;;;;;3.60;2.50;;;;;;;16.70;100.00;100153.88;106532;1250;71300;-69
2023/07/30 02:10:59;;;;;;;5.10;2.90;;;;;;;16.66;100.00;100155.11;106337;1253;73134;-70
2023/07/30 02:13:26;;;;;;;3.80;2.80;;;;;;;16.63;100.00;100156.04;106367;1250;61455;-69
2023/07/30 02:15:53;;;;;;;4.70;3.00;;;;;;;16.59;100.00;100154.86;106401;1250;62147;-69
2023/07/30 02:18:20;;;;;;;4.80;2.80;;;;;;;16.54;100.00;100159.02;106486;1251;73568;-70
2023/07/30 02:20:47;;;;;;;4.30;2.80;;;;;;;16.49;100.00;100160.44;106441;1250;71242;-69
2023/07/30 02:23:15;;;;;;;4.10;2.80;;;;;;;16.43;100.00;100163.02;106341;1250;71107;-69
2023/07/30 02:25:43;;;;;;;5.40;2.70;;;;;;;16.38;100.00;100163.58;106433;1250;62584;-70
2023/07/30 02:28:10;;;;;;;5.00;3.10;;;;;;;16.33;100.00;100160.23;106286;1250;61292;-70
2023/07/30 02:30:40;;;;;;;4.70;3.20;;;;;;;16.29;100.00;100159.95;106422;1250;73620;-70
2023/07/30 02:33:07;;;;;;;3.80;2.80;;;;;;;16.25;100.00;100161.94;106328;1251;71229;-69
2023/07/30 02:35:34;;;;;;;4.70;2.80;;;;;;;16.22;100.00;100163.24;106330;1250;72717;-70
2023/07/30 02:38:00;;;;;;;4.50;2.70;;;;;;;16.19;100.00;100162.79;106434;1254;62065;-68
2023/07/30 02:40:27;;;;;;;4.60;2.90;;;;;;;16.17;100.00;100162.46;106618;1250;61157;-69
2023/07/30 02:42:54;;;;;;;4.90;2.90;;;;;;;16.14;100.00;100162.64;106408;1250;73781;-69
2023/07/30 02:45:21;;;;;;;5.40;3.10;;;;;;;16.13;100.00;100162.25;106383;1250;69690;-69
2023/07/30 02:47:48;;;;;;;5.80;3.20;;;;;;;16.11;100.00;100162.19;106426;1255;70223;-69
2023/07/30 02:50:15;;;;;;;6.50;3.40;;;;;;;16.09;100.00;100167.45;106459;1250;61208;-71
2023/07/30 02:52:45;;;;;;;5.30;3.10;;;;;;;16.07;100.00;100170.52;106435;1250;61252;-69
2023/07/30 02:55:12;;;;;;;4.60;2.90;;;;;;;16.03;100.00;100172.33;106301;1250;74659;-70
2023/07/30 02:57:38;;;;;;;6.40;3.00;;;;;;;15.99;100.00;100176.13;106305;1250;71239;-69
2023/07/30 03:00:06;;;;;;;5.10;3.00;;;;;;;15.96;100.00;100178.70;106375;1255;71070;-69
2023/07/30 03:02:33;;;;;;;4.50;2.90;;;;;;;15.94;100.00;100177.63;108303;1250;61480;-68
2023/07/30 03:05:00;;;;;;;5.20;3.10;;;;;;;15.92;100.00;100175.50;106274;1250;61164;-69
2023/07/30 03:07:27;;;;;;;4.20;2.40;;;;;;;15.91;100.00;100177.45;106274;1254;74709;-69
2023/07/30 03:09:54;;;;;;;4.30;2.70;;;;;;;15.89;100.00;100176.92;106333;1255;70054;-69
2023/07/30 03:12:21;;;;;;;4.70;2.50;;;;;;;15.87;100.00;100181.20;106509;1250;72639;-70
2023/07/30 03:14:47;;;;;;;4.50;2.50;;;;;;;15.84;100.00;100178.02;106429;1250;61276;-69
2023/07/30 03:17:14;;;;;;;6.30;2.60;;;;;;;15.82;100.00;100179.33;106386;1250;61282;-68
2023/07/30 03:19:41;;;;;;;5.00;2.50;;;;;;;15.78;100.00;100182.30;106375;1253;74628;-70
2023/07/30 03:22:08;;;;;;;4.40;2.60;;;;;;;15.75;100.00;100181.15;106374;1250;69440;-70
2023/07/30 03:24:34;;;;;;;5.50;2.50;;;;;;;15.72;100.00;100184.96;106551;1250;61341;-69
2023/07/30 03:27:01;;;;;;;6.30;2.70;;;;;;;15.68;100.00;100186.91;106336;1250;61276;-68
2023/07/30 03:29:28;;;;;;;3.50;2.00;;;;;;;15.66;100.00;100189.23;106365;1254;61246;-69
2023/07/30 03:31:55;;;;;;;5.20;2.60;;;;;;;15.63;100.00;100187.53;106255;1253;72854;-69
2023/07/30 03:34:22;;;;;;;4.60;2.40;;;;;;;15.60;100.00;100188.32;106477;1250;70491;-70
2023/07/30 03:36:49;;;;;;;7.80;2.70;;;;;;;15.57;100.00;100190.15;106389;1251;74238;-68
2023/07/30 03:39:16;;;;;;;5.80;3.00;;;;;;;15.55;100.00;100188.16;106327;1250;62817;-68
2023/07/30 03:41:43;;;;;;;4.60;2.50;;;;;;;15.53;100.00;100187.66;106374;1254;61337;-68
2023/07/30 03:44:10;;;;;;;5.50;2.70;;;;;;;15.51;100.00;100192.06;106324;1250;74707;-67
2023/07/30 03:46:36;;;;;;;5.00;2.50;;;;;;;15.50;100.00;100190.63;106574;1250;69255;-69
2023/07/30 03:49:03;;;;;;;5.90;2.40;;;;;;;15.49;100.00;100198.90;106425;1250;71219;-68
2023/07/30 03:51:31;;;;;;;6.20;2.40;;;;;;;15.48;100.00;100196.55;106386;1251;61237;-68
2023/07/30 03:53:58;;;;;;;6.40;2.40;;;;;;;15.46;100.00;100201.13;106363;1250;61382;-70
2023/07/30 03:56:25;;;;;;;4.60;2.20;;;;;;;15.45;100.00;100205.67;106435;1250;75125;-70
2023/07/30 03:58:52;;;;;;;5.30;2.40;;;;;;;15.45;100.00;100206.98;106492;1249;71195;-68
2023/07/30 04:01:19;;;;;;;6.70;2.30;;;;;;;15.45;100.00;100207.70;106321;1250;72634;-68
2023/07/30 04:03:46;;;;;;;7.20;2.40;;;;;;;15.44;100.00;100207.95;106428;1250;61274;-69
2023/07/30 04:06:13;;;;;;;6.80;2.40;;;;;;;15.46;99.98;100211.08;106298;1254;61326;-69
2023/07/30 04:08:39;;;;;;;5.30;2.50;;;;;;;15.47;99.97;100215.41;106608;1250;75486;-68
2023/07/30 04:11:06;;;;;;;6.70;2.40;;;;;;;15.49;99.73;100217.16;106388;1250;70042;-68
2023/07/30 04:13:33;;;;;;;5.60;2.40;;;;;;;15.51;99.65;100216.64;106339;1254;71854;-68
2023/07/30 04:16:00;;;;;;;8.20;2.90;;;;;;;15.54;99.49;100221.85;106347;1250;61356;-68
2023/07/30 04:18:26;;;;;;;6.10;2.40;;;;;;;15.55;99.40;100218.79;106415;1250;61346;-71
2023/07/30 04:20:56;;;;;;;5.70;2.40;;;;;;;15.57;99.27;100217.14;106528;1250;74105;-68
2023/07/30 04:23:23;;;;;;;7.80;2.40;;;;;;;15.57;99.07;100216.09;106486;1255;69924;-68
2023/07/30 04:25:50;;;;;;;5.70;2.20;;;;;;;15.59;98.98;100218.67;106462;1255;72497;-70
2023/07/30 04:28:17;;;;;;;5.50;2.40;;;;;;;15.61;98.84;100217.17;106320;1254;61188;-69
2023/07/30 04:30:44;;;;;;;8.40;2.40;;;;;;;15.63;98.89;100218.09;106612;1250;61353;-69
2023/07/30 04:33:11;;;;;;;5.80;2.40;;;;;;;15.67;98.61;100219.18;106316;1255;73111;-70
2023/07/30 04:35:39;;;;;;;4.40;2.30;;;;;;;15.70;98.62;100213.27;106250;1256;70010;-68
2023/07/30 04:38:06;;;;;;;6.50;2.70;;;;;;;15.74;98.35;100213.22;106258;1253;73280;-69
2023/07/30 04:40:33;;;;;;;6.50;2.40;;;;;;;15.78;98.13;100217.61;106487;1255;62839;-69
2023/07/30 04:43:00;;;;;;;7.20;2.50;;;;;;;15.82;98.02;100220.67;106327;1251;61662;-69
2023/07/30 04:45:27;;;;;;;7.30;2.70;;;;;;;15.85;97.91;100221.63;106361;1254;73630;-69
2023/07/30 04:47:54;;;;;;;6.10;2.40;;;;;;;15.88;97.83;100220.48;106394;1255;70554;-69
2023/07/30 04:50:21;;;;;;;4.50;2.20;;;;;;;15.90;97.60;100221.08;106342;1254;70551;-69
2023/07/30 04:52:47;;;;;;;5.80;2.40;;;;;;;15.93;97.45;100220.56;106623;1254;62567;-69
2023/07/30 04:55:14;;;;;;;5.60;2.30;;;;;;;15.95;97.31;100219.42;106494;1250;61117;-70
2023/07/30 04:57:41;;;;;;;6.20;2.60;;;;;;;16.01;97.44;100220.80;106363;1254;73430;-69
2023/07/30 05:00:08;;;;;;;7.90;2.50;;;;;;;16.05;97.36;100221.79;106334;1253;70767;-69
2023/07/30 05:02:35;;;;;;;4.60;2.30;;;;;;;16.12;97.46;100222.05;106479;1250;72624;-69
2023/07/30 05:05:02;;;;;;;5.80;2.40;;;;;;;16.17;97.57;100216.96;106357;1250;62458;-69
2023/07/30 05:07:29;;;;;;;6.30;2.70;;;;;;;16.25;97.57;100220.20;106332;1255;61539;-70
2023/07/30 05:09:56;;;;;;;5.60;2.40;;;;;;;16.34;97.47;100214.91;106319;1250;73893;-70
2023/07/30 05:12:22;;;;;;;5.30;2.30;;;;;;;16.43;97.46;100216.45;106308;1255;70039;-70
2023/07/30 05:14:49;;;;;;;5.10;2.30;;;;;;;16.50;97.17;100210.96;106623;1250;73179;-69
2023/07/30 05:17:16;;;;;;;6.40;3.10;;;;;;;16.58;96.99;100213.81;106316;1254;61244;-69
2023/07/30 05:19:43;;;;;;;6.90;2.90;;;;;;;16.65;96.80;100214.81;106441;1253;61261;-70
2023/07/30 05:22:10;;;;;;;8.50;3.00;;;;;;;16.71;96.66;100219.38;106469;1250;73529;-69
2023/07/30 05:24:37;;;;;;;6.00;3.00;;;;;;;16.78;96.46;100223.55;106517;1255;70377;-70
2023/07/30 05:27:04;;;;;;;7.50;3.00;;;;;;;16.84;96.32;100223.10;106390;1251;70714;-69
2023/07/30 05:29:31;;;;;;;5.80;3.10;;;;;;;16.88;96.06;100222.14;106379;1250;61613;-69
2023/07/30 05:31:58;;;;;;;7.90;3.00;;;;;;;16.93;95.89;100222.84;106350;1250;61650;-70
2023/07/30 05:34:25;;;;;;;6.60;3.60;;;;;;;16.98;95.53;100223.56;106369;1253;74648;-69
2023/07/30 05:36:51;;;;;;;9.10;3.00;;;;;;;17.03;95.63;100226.08;106605;1250;71218;-69
2023/07/30 05:39:18;;;;;;;6.30;3.50;;;;;;;17.10;95.77;100228.75;106443;1250;71609;-68
2023/07/30 05:41:45;;;;;;;6.60;3.40;;;;;;;17.16;95.80;100227.88;106325;1249;62121;-68
2023/07/30 05:44:12;;;;;;;6.90;4.10;;;;;;;17.22;95.75;100227.56;106420;1253;61239;-68
2023/07/30 05:46:39;;;;;;;6.80;3.80;;;;;;;17.27;95.25;100228.48;106438;1253;74648;-70
2023/07/30 05:49:05;;;;;;;7.00;4.00;;;;;;;17.31;94.86;100221.08;106446;1250;69917;-69
2023/07/30 05:51:32;;;;;;;8.30;4.50;;;;;;;17.37;94.64;100214.55;106338;1250;72648;-68
2023/07/30 05:53:59;;;;;;;7.80;4.50;;;;;;;17.42;94.09;100217.11;106376;1251;61261;-69
2023/07/30 05:56:26;;;;;;;8.00;5.40;;;;;;;17.49;93.89;100216.58;106339;1251;62068;-68
2023/07/30 05:58:53;;;;;;;9.60;5.40;;;;;;;17.53;93.06;100219.30;106516;1250;74641;-69
2023/07/30 06:01:20;;;;;;;10.20;5.00;;;;;;;17.61;93.24;100217.86;106430;1249;70994;-69
2023/07/30 06:03:47;;;;;;;7.70;5.30;;;;;;;17.71;93.06;100217.06;106362;1253;72712;-70
2023/07/30 06:06:14;;;;;;;7.70;5.00;;;;;;;17.81;92.05;100222.01;106361;1255;61772;-71
2023/07/30 06:08:41;;;;;;;8.60;5.30;;;;;;;17.88;91.15;100219.63;106485;1253;61294;-71
2023/07/30 06:11:08;;;;;;;9.20;5.30;;;;;;;17.96;90.51;100220.88;106494;1250;73447;-69
2023/07/30 06:13:34;;;;;;;8.50;5.30;;;;;;;18.06;89.94;100219.79;106374;1254;71436;-70
2023/07/30 06:16:01;;;;;;;7.10;4.80;;;;;;;18.18;89.90;100218.48;106384;1253;72201;-70
2023/07/30 06:18:28;;;;;;;8.20;4.90;;;;;;;18.24;88.60;100223.77;106299;1252;62098;-69
2023/07/30 06:20:55;;;;;;;9.00;5.40;;;;;;;18.26;87.83;100222.45;106566;1255;61222;-70
2023/07/30 06:23:21;;;;;;;8.40;4.60;;;;;;;18.28;87.22;100223.64;106437;1253;74371;-70
2023/07/30 06:25:48;;;;;;;8.20;4.50;;;;;;;18.36;86.83;100225.02;106284;1254;71229;-69
2023/07/30 06:28:15;;;;;;;7.50;5.00;;;;;;;18.40;86.33;100226.72;106291;1256;72687;-69
2023/07/30 06:30:42;;;;;;;8.80;4.40;;;;;;;18.46;86.65;100221.27;106342;1255;62550;-72
2023/07/30 06:33:08;;;;;;;8.90;4.50;;;;;;;18.52;86.28;100219.11;106549;1250;61247;-71
2023/07/30 06:35:35;;;;;;;7.50;4.40;;;;;;;18.54;85.56;100215.55;106246;1255;74674;-70
2023/07/30 06:38:02;;;;;;;6.40;3.70;;;;;;;18.53;84.74;100215.86;106385;1255;71191;-70
2023/07/30 06:40:29;;;;;;;7.40;4.80;;;;;;;18.51;83.35;100219.67;106239;1256;71447;-69
2023/07/30 06:42:55;;;;;;;7.40;3.40;;;;;;;18.54;83.63;100221.99;106529;1256;61969;-70
2023/07/30 06:45:22;;;;;;;8.20;4.00;;;;;;;18.62;83.73;100217.01;106409;1251;61221;-68
2023/07/30 06:47:49;;;;;;;7.50;3.40;;;;;;;18.73;82.48;100219.09;106325;1257;73486;-69
2023/07/30 06:50:16;;;;;;;7.80;3.80;;;;;;;18.80;80.90;100218.95;106300;1253;70428;-68
2023/07/30 06:52:43;;;;;;;6.30;3.30;;;;;;;18.86;79.39;100223.16;106251;1255;71487;-69
2023/07/30 06:55:09;;;;;;;5.40;2.90;;;;;;;18.93;78.68;100231.23;106673;1254;61158;-69
2023/07/30 06:57:36;;;;;;;6.70;2.70;;;;;;;18.97;76.94;100239.69;106472;1250;61243;-70
2023/07/30 07:00:04;;;;;;;6.20;2.40;;;;;;;19.01;76.03;100238.21;106305;1255;73447;-68
2023/07/30 07:02:32;;;;;;;6.40;3.40;;;;;;;19.08;75.25;100238.67;106351;1257;69450;-68
2023/07/30 07:04:59;;;;;;;5.30;2.50;;;;;;;19.14;74.69;100242.04;106640;1251;72619;-69
2023/07/30 07:07:26;;;;;;;5.50;2.50;;;;;;;19.25;74.03;100238.39;106282;1256;63176;-69
2023/07/30 07:09:53;;;;;;;5.50;2.00;;;;;;;19.40;74.06;100240.64;106408;1251;61279;-70
2023/07/30 07:12:20;;;;;;;4.40;1.70;;;;;;;19.54;72.34;100241.83;106391;1251;74707;-69
2023/07/30 07:14:46;;;;;;;13.90;2.20;;;;;;;19.64;70.77;100246.95;106373;1257;71261;-70
2023/07/30 07:17:14;;;;;;;3.30;1.70;;;;;;;19.71;68.98;100257.72;106471;1250;71546;-71
2023/07/30 07:19:41;;;;;;;7.90;1.90;;;;;;;19.78;67.48;100245.89;106375;1250;61790;-69
2023/07/30 07:22:07;;;;;;;3.90;1.50;;;;;;;19.92;69.10;100241.23;106341;1254;61181;-69
2023/07/30 07:24:34;;;;;;;3.70;1.40;;;;;;;20.03;66.79;100244.83;106246;1255;73466;-69
2023/07/30 07:27:01;;;;;;;4.40;1.50;;;;;;;20.07;66.74;100246.81;106423;1254;70044;-71
2023/07/30 07:29:28;;;;;;;5.40;1.70;;;;;;;20.16;66.66;100248.55;106418;1253;71437;-69
2023/07/30 07:31:55;;;;;;;4.40;1.30;;;;;;;20.23;65.37;100244.88;106326;1253;61269;-69
2023/07/30 07:34:22;;;;;;;3.30;1.40;;;;;;;20.28;64.85;100242.95;106342;1250;61384;-71
2023/07/30 07:36:49;;;;;;;4.30;1.40;;;;;;;20.28;64.33;100247.27;106381;1254;74857;-71
2023/07/30 07:39:15;;;;;;;4.80;1.80;;;;;;;20.31;64.50;100248.48;106713;1251;61778;-70
2023/07/30 07:41:42;;;;;;;5.40;1.30;;;;;;;20.41;65.55;100253.84;106398;1251;72966;-71
2023/07/30 07:44:10;;;;;;;4.60;1.60;;;;;;;20.46;64.54;100254.06;106411;1253;61726;-71
2023/07/30 07:46:37;;;;;;;5.60;1.50;;;;;;;20.43;64.19;100252.19;106427;1256;61104;-69
2023/07/30 07:49:04;;;;;;;4.60;1.30;;;;;;;20.37;63.95;100250.48;106570;1254;75172;-70
2023/07/30 07:51:31;;;;;;;3.20;1.10;;;;;;;20.31;63.76;100261.14;106377;1251;71181;-70
2023/07/30 07:53:58;;;;;;;5.40;1.40;;;;;;;20.23;63.53;100259.42;105841;1251;616491;-71
2023/07/30 07:56:25;;;;;;;4.10;1.20;;;;;;;20.25;64.06;100256.88;106330;1254;61896;-69
2023/07/30 07:58:51;;;;;;;3.60;1.30;;;;;;;20.38;64.57;100252.39;106361;1255;61263;-71
2023/07/30 08:01:18;;;;;;;3.60;1.30;;;;;;;20.54;63.50;100252.80;106595;1251;74059;-70
2023/07/30 08:03:45;;;;;;;3.90;1.30;;;;;;;20.68;62.77;100255.52;106329;1253;71413;-69
2023/07/30 08:06:12;;;;;;;5.10;1.40;;;;;;;20.83;62.29;100250.66;106380;1254;73487;-69
2023/07/30 08:08:39;;;;;;;3.30;1.10;;;;;;;20.96;61.36;100249.17;106228;1251;61328;-70
2023/07/30 08:11:07;;;;;;;3.60;1.00;;;;;;;21.07;60.48;100255.01;106481;1251;61257;-71
2023/07/30 08:13:35;;;;;;;3.40;1.30;;;;;;;21.16;59.95;100249.26;106392;1256;74642;-70
2023/07/30 08:16:02;;;;;;;5.30;1.60;;;;;;;21.23;59.17;100246.67;106346;1254;69981;-70
2023/07/30 08:18:29;;;;;;;4.60;1.40;;;;;;;21.32;59.01;100246.33;106415;1251;70539;-69
2023/07/30 08:20:55;;;;;;;3.60;1.20;;;;;;;21.45;59.09;100253.52;106348;1251;62244;-71
2023/07/30 08:23:22;;;;;;;5.80;1.60;;;;;;;21.55;58.48;100252.15;106553;1253;61254;-69
2023/07/30 08:25:49;;;;;;;4.80;1.20;;;;;;;21.61;57.51;100249.77;106481;1253;74708;-70
2023/07/30 08:28:17;;;;;;;4.70;1.10;;;;;;;21.74;57.80;100256.23;106406;1253;70008;-69
2023/07/30 08:30:44;;;;;;;5.30;1.20;;;;;;;21.80;57.58;100255.39;106428;1250;71610;-69
2023/07/30 08:33:11;;;;;;;5.30;1.50;;;;;;;21.84;57.19;100264.54;106507;1251;61352;-71
2023/07/30 08:35:37;;;;;;;5.50;1.60;;;;;;;21.88;56.29;100264.02;106446;1250;61768;-69
2023/07/30 08:38:04;;;;;;;4.30;1.30;;;;;;;21.89;55.37;100264.84;106320;1254;75153;-70
2023/07/30 08:40:32;;;;;;;5.00;1.30;;;;;;;21.89;55.45;100260.73;106463;1254;71199;-70
2023/07/30 08:42:59;;;;;;;4.80;1.30;;;;;;;21.92;55.67;100259.79;106406;1251;70651;-71
2023/07/30 08:45:26;;;;;;;2.70;1.10;;;;;;;21.97;55.80;100258.79;106548;1251;61365;-69
2023/07/30 08:47:52;;;;;;;3.40;1.20;;;;;;;21.96;55.83;100249.39;106392;1251;61244;-70
2023/07/30 08:50:20;;;;;;;5.20;1.50;;;;;;;22.10;56.71;100251.56;106347;1256;74102;-68
2023/07/30 08:52:47;;;;;;;5.30;1.40;;;;;;;22.21;56.23;100250.81;106546;1251;69636;-70
2023/07/30 08:55:16;;;;;;;4.00;1.40;;;;;;;22.18;55.50;100245.39;106606;1251;71585;-71
2023/07/30 08:57:45;;;;;;;3.30;1.50;;;;;;;22.20;55.85;100243.36;106362;1250;61897;-71
2023/07/30 09:00:15;;;;;;;4.10;1.50;;;;;;;22.24;55.10;100247.72;106433;1251;61167;-70
2023/07/30 09:02:51;;;;;;;6.00;1.50;;;;;;;22.27;55.32;100253.56;106404;1251;73535;-69
2023/07/30 09:05:20;;;;;;;2.90;1.30;;;;;;;22.38;55.40;100251.52;106521;1251;70184;-69
2023/07/30 09:07:48;;;;;;;4.00;1.60;;;;;;;22.46;55.15;100245.42;106323;1250;71514;-69
2023/07/30 09:10:15;;;;;;;2.90;1.20;;;;;;;22.53;55.36;100245.25;106372;1251;61334;-69
2023/07/30 09:12:42;;;;;;;5.10;1.90;;;;;;;22.58;55.75;100238.11;106343;1254;61641;-69
2023/07/30 09:15:11;;;;;;;4.70;1.50;;;;;;;22.68;55.22;100244.27;106608;1250;75528;-69
2023/07/30 09:17:37;;;;;;;3.50;1.40;;;;;;;22.76;55.22;100244.60;106524;1251;70563;-68
2023/07/30 09:20:05;;;;;;;5.50;1.90;;;;;;;22.79;54.12;100247.48;106385;1253;71841;-70
2023/07/30 09:22:36;;;;;;;5.90;1.90;;;;;;;22.88;54.58;100244.30;106467;1251;61294;-68
2023/07/30 09:25:03;;;;;;;6.40;1.80;;;;;;;22.94;54.38;100243.82;106580;1251;61228;-70
2023/07/30 09:27:32;;;;;;;4.70;1.70;;;;;;;22.97;54.40;100240.96;106401;1251;74649;-68
2023/07/30 09:30:00;;;;;;;5.90;1.60;;;;;;;23.05;54.84;100254.27;106277;1251;71112;-70
2023/07/30 09:32:29;;;;;;;6.90;2.00;;;;;;;23.06;53.63;100250.25;106308;1255;72635;-68
2023/07/30 09:35:05;;;;;;;4.70;1.50;;;;;;;23.08;54.04;100249.66;106795;1254;61145;-69
2023/07/30 09:37:35;;;;;;;6.30;2.00;;;;;;;23.11;54.05;100254.05;106450;1249;61148;-68
2023/07/30 09:40:04;;;;;;;5.10;1.80;;;;;;;23.13;53.77;100259.69;106377;1251;73693;-68
2023/07/30 09:42:30;;;;;;;5.00;1.90;;;;;;;23.20;53.85;100262.54;106282;1254;71202;-69
2023/07/30 09:44:59;;;;;;;4.70;2.20;;;;;;;23.25;53.51;100267.64;106617;1251;72732;-69
2023/07/30 09:47:27;;;;;;;3.90;1.60;;;;;;;23.19;52.64;100279.65;106369;1251;61609;-68
2023/07/30 09:49:54;;;;;;;6.60;2.00;;;;;;;23.06;52.71;100289.59;106305;1251;61248;-69
2023/07/30 09:52:21;;;;;;;4.90;1.70;;;;;;;22.97;52.99;100276.08;106381;1253;74837;-69
2023/07/30 09:54:52;;;;;;;5.50;2.20;;;;;;;23.00;53.50;100277.38;106623;1250;71189;-69
2023/07/30 09:57:18;;;;;;;4.40;1.80;;;;;;;23.09;53.38;100289.00;106227;1251;73861;-70
2023/07/30 09:59:45;;;;;;;6.50;2.20;;;;;;;23.12;53.36;100286.30;106379;1250;61155;-71
2023/07/30 10:02:13;;;;;;;5.30;1.90;;;;;;;23.14;53.37;100290.42;106291;1251;61240;-70
2023/07/30 10:04:47;;;;;;;4.90;1.90;;;;;;;23.11;53.73;100284.56;106546;1256;74250;-72
2023/07/30 10:07:18;;;;;;;4.30;1.60;;;;;;;23.06;53.47;100287.70;106356;1251;70042;-69
2023/07/30 10:09:48;;;;;;;5.50;1.60;;;;;;;23.00;53.64;100295.45;106447;1251;72714;-70
2023/07/30 10:12:22;;;;;;;4.80;1.70;;;;;;;22.89;53.60;100295.25;106414;1251;61355;-67
2023/07/30 10:14:50;;;;;;;4.60;1.70;;;;;;;22.81;54.69;100298.97;106358;1250;62173;-70
2023/07/30 10:17:17;;;;;;;3.50;1.40;;;;;;;22.65;55.33;100303.83;106330;1251;75094;-68
2023/07/30 10:19:48;;;;;;;5.00;1.90;;;;;;;22.48;55.73;100309.44;106357;1254;70024;-69
2023/07/30 10:22:19;;;;;;;5.40;2.20;;;;;;;22.27;56.33;100304.03;106525;1251;71625;-71
2023/07/30 10:25:03;;;;;;;7.30;2.40;;;;;;;22.06;56.54;100313.57;106345;1254;61654;-68
2023/07/30 10:27:39;;;;;;;4.20;2.40;;;;;;;21.81;57.20;100308.33;106415;1250;61865;-68
2023/07/30 10:30:14;;;;;;;4.80;2.10;;;;;;;21.62;58.02;100310.33;106679;1253;73524;-69
2023/07/30 10:32:54;;;;;;;6.20;2.90;;;;;;;21.44;58.95;100322.31;106389;1251;71344;-69
2023/07/30 10:35:46;;;;;;;6.20;2.70;;;;;;;21.24;59.04;100327.14;106339;1253;72666;-69
2023/07/30 10:38:24;;;;;;;6.00;2.70;;;;;;;21.03;59.78;100334.84;106327;1251;61142;-69
2023/07/30 10:41:01;;;;;;;6.80;3.20;;;;;;;20.85;60.39;100335.23;106408;1251;61257;-69
2023/07/30 10:43:39;;;;;;;6.90;3.30;;;;;;;20.74;61.36;100337.21;106382;1250;75076;-68
2023/07/30 10:46:08;;;;;;;6.30;3.50;;;;;;;20.69;61.80;100337.79;106425;1251;71255;-70
2023/07/30 10:48:39;;;;;;;5.90;3.40;;;;;;;20.64;62.04;100343.60;106437;1253;72493;-69
2023/07/30 10:51:09;;;;;;;7.50;3.60;;;;;;;20.60;62.26;100350.73;106543;1251;61713;-69
2023/07/30 10:53:36;;;;;;;6.50;3.30;;;;;;;20.70;62.73;100342.77;106462;1255;61240;-71
2023/07/30 10:56:04;;;;;;;7.60;3.80;;;;;;;20.84;62.48;100337.61;106502;1249;73138;-70
2023/07/30 10:58:33;;;;;;;7.80;3.90;;;;;;;20.99;62.41;100337.55;106449;1251;71189;-71
2023/07/30 11:01:03;;;;;;;5.90;3.70;;;;;;;21.20;62.64;100334.36;106618;1250;72671;-72
2023/07/30 11:03:33;;;;;;;7.40;4.10;;;;;;;21.38;61.69;100335.85;106363;1250;61193;-70
2023/07/30 11:06:02;;;;;;;6.60;3.80;;;;;;;21.44;61.79;100334.68;106346;1251;61937;-70
2023/07/30 11:08:39;;;;;;;6.90;3.70;;;;;;;21.43;61.93;100325.98;106392;1254;73504;-71
2023/07/30 11:11:08;;;;;;;8.50;4.20;;;;;;;21.34;62.27;100338.34;106326;1251;72530;-70
2023/07/30 11:13:41;;;;;;;6.50;4.00;;;;;;;21.16;62.27;100347.38;106394;1251;71479;-70
2023/07/30 11:16:11;;;;;;;5.40;3.40;;;;;;;20.96;63.01;100342.86;106253;1251;62570;-70